sensor_id;sensor_type;location;lat;lon;timestamp;pressure;altitude;pressure_sealevel;temperature;humidity
77702;BME280;66868;42.708;23.404;2023-05-27T00:00:21;95252.22;;;15.35;nan
77702;BME280;66868;42.708;23.404;2023-05-27T00:02:46;95245.97;;;15.28;nan
77702;BME280;66868;42.708;23.404;2023-05-27T00:05:12;95246.34;;;15.35;nan
77702;BME280;66868;42.708;23.404;2023-05-27T00:07:37;95244.22;;;15.40;nan
77702;BME280;66868;42.708;23.404;2023-05-27T00:10:03;95245.03;;;15.40;nan
77702;BME280;66868;42.708;23.404;2023-05-27T00:12:28;95247.47;;;15.42;nan
77702;BME280;66868;42.708;23.404;2023-05-27T00:14:53;95253.16;;;15.45;nan
77702;BME280;66868;42.708;23.404;2023-05-27T00:17:19;95251.66;;;15.43;nan
77702;BME280;66868;42.708;23.404;2023-05-27T00:19:44;95234.59;;;15.32;nan
77702;BME280;66868;42.708;23.404;2023-05-27T00:22:12;95251.66;;;15.43;nan
77702;BME280;66868;42.708;23.404;2023-05-27T00:24:38;95246.22;;;15.47;nan
77702;BME280;66868;42.708;23.404;2023-05-27T00:27:07;95235.81;;;15.51;nan
77702;BME280;66868;42.708;23.404;2023-05-27T00:29:32;95228.03;;;15.52;nan
77702;BME280;66868;42.708;23.404;2023-05-27T00:32:00;95235.81;;;15.51;nan
77702;BME280;66868;42.708;23.404;2023-05-27T00:34:25;95214.22;;;15.55;nan
77702;BME280;66868;42.708;23.404;2023-05-27T00:36:50;95204.47;;;15.48;nan
77702;BME280;66868;42.708;23.404;2023-05-27T00:39:16;95227.66;;;15.68;nan
77702;BME280;66868;42.708;23.404;2023-05-27T00:41:47;95221.88;;;15.66;nan
77702;BME280;66868;42.708;23.404;2023-05-27T00:44:13;95213.97;;;15.69;nan
77702;BME280;66868;42.708;23.404;2023-05-27T00:46:39;95213.41;;;15.65;nan
77702;BME280;66868;42.708;23.404;2023-05-27T00:49:04;95187.22;;;15.52;nan
77702;BME280;66868;42.708;23.404;2023-05-27T00:51:30;95201.25;;;15.58;nan
77702;BME280;66868;42.708;23.404;2023-05-27T00:53:56;95208.75;;;15.59;nan
77702;BME280;66868;42.708;23.404;2023-05-27T00:56:21;95207.94;;;15.59;nan
77702;BME280;66868;42.708;23.404;2023-05-27T00:58:47;95190.09;;;15.47;nan
77702;BME280;66868;42.708;23.404;2023-05-27T01:01:13;95204.25;;;15.52;nan
77702;BME280;66868;42.708;23.404;2023-05-27T01:03:38;95192.41;;;15.39;nan
77702;BME280;66868;42.708;23.404;2023-05-27T01:06:30;95201.44;;;15.32;nan
77702;BME280;66868;42.708;23.404;2023-05-27T01:11:46;95178.25;;;15.13;nan
77702;BME280;66868;42.708;23.404;2023-05-27T01:14:14;95188.25;;;15.16;nan
77702;BME280;66868;42.708;23.404;2023-05-27T01:16:43;95190.19;;;15.13;nan
77702;BME280;66868;42.708;23.404;2023-05-27T01:19:14;95184.50;;;15.09;nan
77702;BME280;66868;42.708;23.404;2023-05-27T01:21:40;95161.34;;;15.01;nan
77702;BME280;66868;42.708;23.404;2023-05-27T01:24:09;95175.16;;;15.21;nan
77702;BME280;66868;42.708;23.404;2023-05-27T01:26:35;95171.06;;;15.18;nan
77702;BME280;66868;42.708;23.404;2023-05-27T01:29:00;95167.25;;;15.24;nan
77702;BME280;66868;42.708;23.404;2023-05-27T01:31:39;95165.75;;;15.21;nan
77702;BME280;66868;42.708;23.404;2023-05-27T01:34:10;95164.59;;;15.25;nan
77702;BME280;66868;42.708;23.404;2023-05-27T01:36:45;95157.88;;;15.24;nan
77702;BME280;66868;42.708;23.404;2023-05-27T01:39:12;95153.56;;;15.25;nan
77702;BME280;66868;42.708;23.404;2023-05-27T01:41:39;95142.56;;;15.24;nan
77702;BME280;66868;42.708;23.404;2023-05-27T01:44:07;95141.84;;;15.33;nan
77702;BME280;66868;42.708;23.404;2023-05-27T01:46:33;95147.63;;;15.35;nan
77702;BME280;66868;42.708;23.404;2023-05-27T01:48:58;95143.47;;;15.34;nan
77702;BME280;66868;42.708;23.404;2023-05-27T01:51:24;95132.81;;;15.18;nan
77702;BME280;66868;42.708;23.404;2023-05-27T01:53:49;95150.66;;;15.18;nan
77702;BME280;66868;42.708;23.404;2023-05-27T01:56:15;95144.97;;;15.03;nan
77702;BME280;66868;42.708;23.404;2023-05-27T01:58:41;95146.16;;;14.99;nan
77702;BME280;66868;42.708;23.404;2023-05-27T02:01:06;95160.88;;;15.07;nan
77702;BME280;66868;42.708;23.404;2023-05-27T02:03:31;95135.56;;;14.59;nan
77702;BME280;66868;42.708;23.404;2023-05-27T02:05:57;95155.50;;;14.66;nan
77702;BME280;66868;42.708;23.404;2023-05-27T02:08:22;95155.25;;;14.46;nan
77702;BME280;66868;42.708;23.404;2023-05-27T02:10:48;95162.31;;;14.30;nan
77702;BME280;66868;42.708;23.404;2023-05-27T02:13:13;95152.47;;;14.26;nan
77702;BME280;66868;42.708;23.404;2023-05-27T02:15:38;95154.88;;;14.40;nan
77702;BME280;66868;42.708;23.404;2023-05-27T02:18:04;95160.34;;;14.46;nan
77702;BME280;66868;42.708;23.404;2023-05-27T02:20:30;95156.25;;;14.20;nan
77702;BME280;66868;42.708;23.404;2023-05-27T02:22:55;95158.88;;;14.07;nan
77702;BME280;66868;42.708;23.404;2023-05-27T02:25:21;95157.47;;;14.03;nan
77702;BME280;66868;42.708;23.404;2023-05-27T02:27:46;95156.72;;;14.14;nan
77702;BME280;66868;42.708;23.404;2023-05-27T02:30:17;95155.31;;;14.10;nan
77702;BME280;66868;42.708;23.404;2023-05-27T02:32:43;95153.09;;;14.05;nan
77702;BME280;66868;42.708;23.404;2023-05-27T02:35:12;95157.22;;;14.19;nan
77702;BME280;66868;42.708;23.404;2023-05-27T02:37:37;95159.53;;;14.22;nan
77702;BME280;66868;42.708;23.404;2023-05-27T02:40:03;95136.94;;;14.18;nan
77702;BME280;66868;42.708;23.404;2023-05-27T02:42:28;95169.97;;;14.30;nan
77702;BME280;66868;42.708;23.404;2023-05-27T02:44:54;95161.09;;;14.12;nan
77702;BME280;66868;42.708;23.404;2023-05-27T02:47:19;95148.63;;;13.85;nan
77702;BME280;66868;42.708;23.404;2023-05-27T02:49:45;95151.53;;;13.92;nan
77702;BME280;66868;42.708;23.404;2023-05-27T02:52:10;95144.97;;;14.00;nan
77702;BME280;66868;42.708;23.404;2023-05-27T02:54:35;95151.72;;;14.12;nan
77702;BME280;66868;42.708;23.404;2023-05-27T02:57:01;95147.81;;;14.20;nan
77702;BME280;66868;42.708;23.404;2023-05-27T02:59:26;95156.97;;;14.22;nan
77702;BME280;66868;42.708;23.404;2023-05-27T03:01:52;95117.50;;;13.93;nan
77702;BME280;66868;42.708;23.404;2023-05-27T03:04:17;95150.00;;;14.13;nan
77702;BME280;66868;42.708;23.404;2023-05-27T03:06:43;95153.03;;;14.18;nan
77702;BME280;66868;42.708;23.404;2023-05-27T03:09:08;95151.84;;;14.11;nan
77702;BME280;66868;42.708;23.404;2023-05-27T03:11:33;95136.97;;;13.94;nan
77702;BME280;66868;42.708;23.404;2023-05-27T03:13:59;95153.03;;;13.94;nan
77702;BME280;66868;42.708;23.404;2023-05-27T03:16:25;95144.00;;;13.90;nan
77702;BME280;66868;42.708;23.404;2023-05-27T03:18:50;95163.38;;;13.80;nan
77702;BME280;66868;42.708;23.404;2023-05-27T03:21:15;95140.97;;;13.61;nan
77702;BME280;66868;42.708;23.404;2023-05-27T03:23:41;95147.63;;;13.75;nan
77702;BME280;66868;42.708;23.404;2023-05-27T03:26:06;95162.16;;;13.86;nan
77702;BME280;66868;42.708;23.404;2023-05-27T03:28:32;95139.44;;;13.83;nan
77702;BME280;66868;42.708;23.404;2023-05-27T03:30:57;95160.13;;;14.02;nan
77702;BME280;66868;42.708;23.404;2023-05-27T03:33:23;95148.19;;;13.91;nan
77702;BME280;66868;42.708;23.404;2023-05-27T03:35:49;95171.03;;;14.04;nan
77702;BME280;66868;42.708;23.404;2023-05-27T03:38:14;95153.88;;;13.95;nan
77702;BME280;66868;42.708;23.404;2023-05-27T03:40:40;95152.47;;;13.91;nan
77702;BME280;66868;42.708;23.404;2023-05-27T03:43:05;95165.59;;;13.85;nan
77702;BME280;66868;42.708;23.404;2023-05-27T03:45:30;95154.25;;;13.78;nan
77702;BME280;66868;42.708;23.404;2023-05-27T03:47:56;95177.25;;;14.00;nan
77702;BME280;66868;42.708;23.404;2023-05-27T03:50:21;95170.53;;;13.99;nan
77702;BME280;66868;42.708;23.404;2023-05-27T03:52:47;95154.28;;;13.89;nan
77702;BME280;66868;42.708;23.404;2023-05-27T03:55:12;95173.66;;;14.02;nan
77702;BME280;66868;42.708;23.404;2023-05-27T03:57:38;95172.75;;;14.03;nan
77702;BME280;66868;42.708;23.404;2023-05-27T04:00:03;95168.25;;;14.07;nan
77702;BME280;66868;42.708;23.404;2023-05-27T04:02:47;95153.88;;;13.95;nan
77702;BME280;66868;42.708;23.404;2023-05-27T04:05:12;95173.94;;;14.10;nan
77702;BME280;66868;42.708;23.404;2023-05-27T04:07:38;95153.63;;;13.98;nan
77702;BME280;66868;42.708;23.404;2023-05-27T04:10:03;95171.63;;;14.07;nan
77702;BME280;66868;42.708;23.404;2023-05-27T04:12:29;95183.31;;;14.10;nan
77702;BME280;66868;42.708;23.404;2023-05-27T04:14:54;95174.53;;;14.14;nan
77702;BME280;66868;42.708;23.404;2023-05-27T04:17:21;95179.63;;;14.14;nan
77702;BME280;66868;42.708;23.404;2023-05-27T04:19:46;95166.69;;;14.17;nan
77702;BME280;66868;42.708;23.404;2023-05-27T04:22:14;95174.47;;;14.27;nan
77702;BME280;66868;42.708;23.404;2023-05-27T04:24:39;95173.41;;;14.29;nan
77702;BME280;66868;42.708;23.404;2023-05-27T04:27:06;95164.47;;;14.36;nan
77702;BME280;66868;42.708;23.404;2023-05-27T04:29:32;95177.81;;;14.51;nan
77702;BME280;66868;42.708;23.404;2023-05-27T04:31:58;95173.31;;;14.54;nan
77702;BME280;66868;42.708;23.404;2023-05-27T04:34:24;95173.91;;;14.58;nan
77702;BME280;66868;42.708;23.404;2023-05-27T04:36:49;95189.44;;;14.66;nan
77702;BME280;66868;42.708;23.404;2023-05-27T04:39:17;95179.84;;;14.70;nan
77702;BME280;66868;42.708;23.404;2023-05-27T04:41:43;95173.78;;;14.71;nan
77702;BME280;66868;42.708;23.404;2023-05-27T04:44:10;95183.91;;;14.83;nan
77702;BME280;66868;42.708;23.404;2023-05-27T04:46:36;95188.78;;;14.86;nan
77702;BME280;66868;42.708;23.404;2023-05-27T04:49:04;95185.19;;;14.78;nan
77702;BME280;66868;42.708;23.404;2023-05-27T04:51:29;95187.50;;;14.81;nan
77702;BME280;66868;42.708;23.404;2023-05-27T04:53:55;95176.97;;;14.85;nan
77702;BME280;66868;42.708;23.404;2023-05-27T04:56:21;95184.25;;;14.90;nan
77702;BME280;66868;42.708;23.404;2023-05-27T04:58:46;95184.88;;;14.93;nan
77702;BME280;66868;42.708;23.404;2023-05-27T05:01:14;95156.81;;;14.82;nan
77702;BME280;66868;42.708;23.404;2023-05-27T05:03:45;95186.97;;;15.11;nan
77702;BME280;66868;42.708;23.404;2023-05-27T05:06:49;95175.25;;;15.19;nan
77702;BME280;66868;42.708;23.404;2023-05-27T05:09:15;95187.91;;;15.21;nan
77702;BME280;66868;42.708;23.404;2023-05-27T05:11:41;95172.59;;;15.21;nan
77702;BME280;66868;42.708;23.404;2023-05-27T05:14:06;95185.00;;;15.25;nan
77702;BME280;66868;42.708;23.404;2023-05-27T05:16:31;95192.50;;;15.27;nan
77702;BME280;66868;42.708;23.404;2023-05-27T05:18:57;95192.88;;;15.33;nan
77702;BME280;66868;42.708;23.404;2023-05-27T05:21:22;95202.63;;;15.39;nan
77702;BME280;66868;42.708;23.404;2023-05-27T05:23:47;95202.16;;;15.57;nan
77702;BME280;66868;42.708;23.404;2023-05-27T05:26:13;95188.44;;;15.46;nan
77702;BME280;66868;42.708;23.404;2023-05-27T05:28:38;95195.66;;;15.64;nan
77702;BME280;66868;42.708;23.404;2023-05-27T05:31:04;95200.28;;;15.70;nan
77702;BME280;66868;42.708;23.404;2023-05-27T05:33:29;95200.03;;;15.84;nan
77702;BME280;66868;42.708;23.404;2023-05-27T05:35:55;95206.59;;;16.09;nan
77702;BME280;66868;42.708;23.404;2023-05-27T05:38:21;95213.25;;;16.32;nan
77702;BME280;66868;42.708;23.404;2023-05-27T05:40:46;95221.41;;;16.47;nan
77702;BME280;66868;42.708;23.404;2023-05-27T05:43:15;95215.28;;;16.49;nan
77702;BME280;66868;42.708;23.404;2023-05-27T05:45:40;95195.16;;;16.24;nan
77702;BME280;66868;42.708;23.404;2023-05-27T05:48:06;95213.19;;;16.22;nan
77702;BME280;66868;42.708;23.404;2023-05-27T05:50:31;95203.09;;;16.10;nan
77702;BME280;66868;42.708;23.404;2023-05-27T05:52:57;95211.47;;;16.01;nan
77702;BME280;66868;42.708;23.404;2023-05-27T05:55:23;95217.19;;;16.04;nan
77702;BME280;66868;42.708;23.404;2023-05-27T05:57:48;95188.91;;;15.85;nan
77702;BME280;66868;42.708;23.404;2023-05-27T06:00:14;95215.34;;;15.95;nan
77702;BME280;66868;42.708;23.404;2023-05-27T06:02:40;95220.66;;;16.03;nan
77702;BME280;66868;42.708;23.404;2023-05-27T06:05:05;95221.78;;;16.10;nan
77702;BME280;66868;42.708;23.404;2023-05-27T06:07:31;95216.47;;;16.13;nan
77702;BME280;66868;42.708;23.404;2023-05-27T06:09:56;95224.50;;;16.29;nan
77702;BME280;66868;42.708;23.404;2023-05-27T06:12:21;95218.69;;;16.39;nan
77702;BME280;66868;42.708;23.404;2023-05-27T06:14:47;95224.50;;;16.41;nan
77702;BME280;66868;42.708;23.404;2023-05-27T06:17:12;95189.19;;;16.34;nan
77702;BME280;66868;42.708;23.404;2023-05-27T06:19:38;95153.06;;;16.07;nan
77702;BME280;66868;42.708;23.404;2023-05-27T06:22:03;95234.19;;;16.58;nan
77702;BME280;66868;42.708;23.404;2023-05-27T06:24:30;95229.97;;;16.57;nan
77702;BME280;66868;42.708;23.404;2023-05-27T06:26:56;95211.19;;;16.47;nan
77702;BME280;66868;42.708;23.404;2023-05-27T06:29:21;95236.75;;;16.58;nan
77702;BME280;66868;42.708;23.404;2023-05-27T06:31:46;95242.25;;;16.74;nan
77702;BME280;66868;42.708;23.404;2023-05-27T06:34:13;95247.75;;;16.90;nan
77702;BME280;66868;42.708;23.404;2023-05-27T06:36:39;95248.75;;;16.99;nan
77702;BME280;66868;42.708;23.404;2023-05-27T06:39:04;95253.97;;;16.97;nan
77702;BME280;66868;42.708;23.404;2023-05-27T06:41:29;95226.03;;;16.85;nan
77702;BME280;66868;42.708;23.404;2023-05-27T06:43:55;95230.13;;;16.87;nan
77702;BME280;66868;42.708;23.404;2023-05-27T06:46:20;95246.31;;;16.97;nan
77702;BME280;66868;42.708;23.404;2023-05-27T06:48:46;95248.91;;;17.07;nan
77702;BME280;66868;42.708;23.404;2023-05-27T06:51:11;95250.44;;;17.09;nan
77702;BME280;66868;42.708;23.404;2023-05-27T06:53:37;95258.28;;;17.17;nan
77702;BME280;66868;42.708;23.404;2023-05-27T06:56:02;95253.28;;;17.16;nan
77702;BME280;66868;42.708;23.404;2023-05-27T06:58:28;95253.94;;;17.39;nan
77702;BME280;66868;42.708;23.404;2023-05-27T07:00:53;95247.13;;;17.49;nan
77702;BME280;66868;42.708;23.404;2023-05-27T07:03:19;95260.81;;;17.59;nan
77702;BME280;66868;42.708;23.404;2023-05-27T07:05:45;95259.38;;;17.66;nan
77702;BME280;66868;42.708;23.404;2023-05-27T07:08:10;95240.13;;;17.51;nan
77702;BME280;66868;42.708;23.404;2023-05-27T07:10:35;95237.53;;;17.41;nan
77702;BME280;66868;42.708;23.404;2023-05-27T07:13:01;95259.00;;;17.50;nan
77702;BME280;66868;42.708;23.404;2023-05-27T07:15:26;95262.31;;;17.41;nan
77702;BME280;66868;42.708;23.404;2023-05-27T07:17:56;95243.97;;;17.36;nan
77702;BME280;66868;42.708;23.404;2023-05-27T07:20:21;95253.88;;;17.50;nan
77702;BME280;66868;42.708;23.404;2023-05-27T07:22:46;95259.31;;;17.56;nan
77702;BME280;66868;42.708;23.404;2023-05-27T07:25:11;95254.31;;;17.55;nan
77702;BME280;66868;42.708;23.404;2023-05-27T07:27:37;95252.56;;;17.55;nan
77702;BME280;66868;42.708;23.404;2023-05-27T07:30:02;95248.09;;;17.57;nan
77702;BME280;66868;42.708;23.404;2023-05-27T07:32:28;95261.78;;;17.67;nan
77702;BME280;66868;42.708;23.404;2023-05-27T07:34:54;95266.00;;;17.78;nan
77702;BME280;66868;42.708;23.404;2023-05-27T07:37:20;95254.13;;;17.77;nan
77702;BME280;66868;42.708;23.404;2023-05-27T07:39:47;95255.91;;;17.86;nan
77702;BME280;66868;42.708;23.404;2023-05-27T07:42:12;95262.97;;;18.03;nan
77702;BME280;66868;42.708;23.404;2023-05-27T07:44:38;95267.34;;;18.13;nan
77702;BME280;66868;42.708;23.404;2023-05-27T07:47:03;95246.25;;;17.99;nan
77702;BME280;66868;42.708;23.404;2023-05-27T07:49:28;95263.28;;;18.10;nan
77702;BME280;66868;42.708;23.404;2023-05-27T07:51:55;95262.91;;;18.34;nan
77702;BME280;66868;42.708;23.404;2023-05-27T07:54:20;95261.28;;;18.33;nan
77702;BME280;66868;42.708;23.404;2023-05-27T07:56:46;95253.88;;;18.39;nan
77702;BME280;66868;42.708;23.404;2023-05-27T07:59:11;95250.81;;;18.55;nan
77702;BME280;66868;42.708;23.404;2023-05-27T08:01:36;95269.97;;;18.70;nan
77702;BME280;66868;42.708;23.404;2023-05-27T08:04:02;95267.28;;;18.62;nan
77702;BME280;66868;42.708;23.404;2023-05-27T08:06:27;95277.97;;;18.67;nan
77702;BME280;66868;42.708;23.404;2023-05-27T08:08:53;95278.34;;;18.53;nan
77702;BME280;66868;42.708;23.404;2023-05-27T08:11:18;95274.13;;;18.52;nan
77702;BME280;66868;42.708;23.404;2023-05-27T08:13:44;95275.22;;;18.59;nan
77702;BME280;66868;42.708;23.404;2023-05-27T08:16:09;95275.50;;;18.56;nan
77702;BME280;66868;42.708;23.404;2023-05-27T08:18:36;95269.28;;;18.68;nan
77702;BME280;66868;42.708;23.404;2023-05-27T08:21:02;95264.97;;;18.59;nan
77702;BME280;66868;42.708;23.404;2023-05-27T08:23:27;95280.13;;;18.91;nan
77702;BME280;66868;42.708;23.404;2023-05-27T08:25:53;95276.03;;;19.08;nan
77702;BME280;66868;42.708;23.404;2023-05-27T08:28:18;95276.03;;;19.17;nan
77702;BME280;66868;42.708;23.404;2023-05-27T08:30:43;95273.44;;;19.27;nan
77702;BME280;66868;42.708;23.404;2023-05-27T08:33:09;95281.25;;;19.35;nan
77702;BME280;66868;42.708;23.404;2023-05-27T08:35:34;95280.53;;;19.42;nan
77702;BME280;66868;42.708;23.404;2023-05-27T08:38:01;95256.25;;;19.37;nan
77702;BME280;66868;42.708;23.404;2023-05-27T08:40:26;95271.69;;;19.18;nan
77702;BME280;66868;42.708;23.404;2023-05-27T08:42:52;95273.59;;;19.16;nan
77702;BME280;66868;42.708;23.404;2023-05-27T08:45:17;95270.66;;;18.82;nan
77702;BME280;66868;42.708;23.404;2023-05-27T08:47:43;95276.84;;;18.60;nan
77702;BME280;66868;42.708;23.404;2023-05-27T08:50:09;95268.91;;;18.53;nan
77702;BME280;66868;42.708;23.404;2023-05-27T08:52:39;95267.94;;;18.64;nan
77702;BME280;66868;42.708;23.404;2023-05-27T08:55:07;95257.16;;;18.61;nan
77702;BME280;66868;42.708;23.404;2023-05-27T08:57:36;95280.78;;;18.74;nan
77702;BME280;66868;42.708;23.404;2023-05-27T09:00:02;95278.22;;;18.83;nan
77702;BME280;66868;42.708;23.404;2023-05-27T09:02:36;95268.50;;;18.77;nan
77702;BME280;66868;42.708;23.404;2023-05-27T09:05:02;95275.13;;;18.89;nan
77702;BME280;66868;42.708;23.404;2023-05-27T09:07:27;95265.66;;;19.00;nan
77702;BME280;66868;42.708;23.404;2023-05-27T09:09:56;95271.19;;;19.14;nan
77702;BME280;66868;42.708;23.404;2023-05-27T09:12:26;95260.91;;;19.05;nan
77702;BME280;66868;42.708;23.404;2023-05-27T09:14:52;95254.16;;;19.13;nan
77702;BME280;66868;42.708;23.404;2023-05-27T09:17:22;95242.28;;;18.93;nan
77702;BME280;66868;42.708;23.404;2023-05-27T09:19:47;95251.19;;;19.08;nan
77702;BME280;66868;42.708;23.404;2023-05-27T09:22:33;95267.13;;;19.02;nan
77702;BME280;66868;42.708;23.404;2023-05-27T09:24:58;95261.19;;;19.02;nan
77702;BME280;66868;42.708;23.404;2023-05-27T09:27:27;95258.75;;;19.10;nan
77702;BME280;66868;42.708;23.404;2023-05-27T09:29:54;95259.13;;;19.15;nan
77702;BME280;66868;42.708;23.404;2023-05-27T09:32:35;95264.41;;;19.23;nan
77702;BME280;66868;42.708;23.404;2023-05-27T09:35:01;95259.47;;;19.39;nan
77702;BME280;66868;42.708;23.404;2023-05-27T09:37:27;95260.00;;;19.52;nan
77702;BME280;66868;42.708;23.404;2023-05-27T09:40:21;95242.16;;;19.60;nan
77702;BME280;66868;42.708;23.404;2023-05-27T09:42:48;95252.06;;;19.82;nan
77702;BME280;66868;42.708;23.404;2023-05-27T09:45:15;95255.00;;;19.88;nan
77702;BME280;66868;42.708;23.404;2023-05-27T09:47:49;95220.56;;;19.80;nan
77702;BME280;66868;42.708;23.404;2023-05-27T09:50:15;95254.41;;;20.21;nan
77702;BME280;66868;42.708;23.404;2023-05-27T09:52:41;95203.78;;;20.04;nan
77702;BME280;66868;42.708;23.404;2023-05-27T09:55:09;95248.00;;;20.70;nan
77702;BME280;66868;42.708;23.404;2023-05-27T09:57:35;95257.81;;;21.10;nan
77702;BME280;66868;42.708;23.404;2023-05-27T10:00:03;95241.25;;;21.30;nan
77702;BME280;66868;42.708;23.404;2023-05-27T10:02:35;95244.59;;;21.82;nan
77702;BME280;66868;42.708;23.404;2023-05-27T10:05:03;95241.00;;;22.17;nan
77702;BME280;66868;42.708;23.404;2023-05-27T10:07:28;95253.03;;;22.59;nan
77702;BME280;66868;42.708;23.404;2023-05-27T10:09:54;95253.22;;;22.89;nan
77702;BME280;66868;42.708;23.404;2023-05-27T10:12:20;95248.53;;;23.25;nan
77702;BME280;66868;42.708;23.404;2023-05-27T10:14:47;95251.91;;;23.42;nan
77702;BME280;66868;42.708;23.404;2023-05-27T10:17:13;95250.78;;;23.53;nan
77702;BME280;66868;42.708;23.404;2023-05-27T10:19:49;95256.19;;;23.74;nan
77702;BME280;66868;42.708;23.404;2023-05-27T10:22:14;95254.47;;;24.05;nan
77702;BME280;66868;42.708;23.404;2023-05-27T10:24:40;95255.19;;;24.30;nan
77702;BME280;66868;42.708;23.404;2023-05-27T10:27:06;95247.75;;;24.58;nan
77702;BME280;66868;42.708;23.404;2023-05-27T10:29:38;95245.44;;;24.86;nan
77702;BME280;66868;42.708;23.404;2023-05-27T10:32:04;95250.78;;;24.92;nan
77702;BME280;66868;42.708;23.404;2023-05-27T10:34:36;95251.72;;;25.14;nan
77702;BME280;66868;42.708;23.404;2023-05-27T10:37:02;95237.38;;;25.03;nan
77702;BME280;66868;42.708;23.404;2023-05-27T10:39:27;95240.44;;;25.07;nan
77702;BME280;66868;42.708;23.404;2023-05-27T10:41:54;95241.59;;;25.04;nan
77702;BME280;66868;42.708;23.404;2023-05-27T10:44:29;95240.63;;;25.05;nan
77702;BME280;66868;42.708;23.404;2023-05-27T10:47:21;95238.59;;;24.93;nan
77702;BME280;66868;42.708;23.404;2023-05-27T10:49:57;95236.56;;;24.80;nan
77702;BME280;66868;42.708;23.404;2023-05-27T10:52:24;95214.44;;;24.55;nan
77702;BME280;66868;42.708;23.404;2023-05-27T10:54:52;95228.34;;;24.54;nan
77702;BME280;66868;42.708;23.404;2023-05-27T10:57:19;95227.38;;;24.55;nan
77702;BME280;66868;42.708;23.404;2023-05-27T10:59:51;95221.91;;;24.50;nan
77702;BME280;66868;42.708;23.404;2023-05-27T11:02:23;95222.44;;;24.45;nan
77702;BME280;66868;42.708;23.404;2023-05-27T11:04:49;95216.53;;;24.51;nan
77702;BME280;66868;42.708;23.404;2023-05-27T11:07:19;95222.44;;;24.68;nan
77702;BME280;66868;42.708;23.404;2023-05-27T11:09:50;95211.84;;;24.78;nan
77702;BME280;66868;42.708;23.404;2023-05-27T11:12:23;95226.28;;;24.95;nan
77702;BME280;66868;42.708;23.404;2023-05-27T11:14:55;95221.44;;;25.15;nan
77702;BME280;66868;42.708;23.404;2023-05-27T11:17:22;95216.72;;;25.33;nan
77702;BME280;66868;42.708;23.404;2023-05-27T11:19:48;95199.09;;;25.28;nan
77702;BME280;66868;42.708;23.404;2023-05-27T11:22:15;95210.78;;;25.62;nan
77702;BME280;66868;42.708;23.404;2023-05-27T11:24:54;95209.97;;;25.61;nan
77702;BME280;66868;42.708;23.404;2023-05-27T11:27:20;95203.06;;;25.68;nan
77702;BME280;66868;42.708;23.404;2023-05-27T11:29:52;95177.19;;;25.31;nan
77702;BME280;66868;42.708;23.404;2023-05-27T11:32:19;95185.94;;;25.44;nan
77702;BME280;66868;42.708;23.404;2023-05-27T11:34:45;95203.44;;;25.65;nan
77702;BME280;66868;42.708;23.404;2023-05-27T11:37:12;95199.38;;;25.77;nan
77702;BME280;66868;42.708;23.404;2023-05-27T11:39:49;95194.63;;;25.81;nan
77702;BME280;66868;42.708;23.404;2023-05-27T11:42:14;95200.06;;;26.01;nan
77702;BME280;66868;42.708;23.404;2023-05-27T11:44:50;95187.78;;;26.09;nan
77702;BME280;66868;42.708;23.404;2023-05-27T11:47:16;95173.00;;;26.10;nan
77702;BME280;66868;42.708;23.404;2023-05-27T11:49:41;95183.69;;;26.36;nan
77702;BME280;66868;42.708;23.404;2023-05-27T11:52:07;95190.50;;;26.37;nan
77702;BME280;66868;42.708;23.404;2023-05-27T11:54:32;95183.84;;;26.49;nan
77702;BME280;66868;42.708;23.404;2023-05-27T11:56:57;95192.03;;;26.74;nan
77702;BME280;66868;42.708;23.404;2023-05-27T11:59:25;95186.25;;;26.93;nan
77702;BME280;66868;42.708;23.404;2023-05-27T12:01:52;95181.19;;;27.13;nan
77702;BME280;66868;42.708;23.404;2023-05-27T12:04:20;95179.78;;;27.45;nan
77702;BME280;66868;42.708;23.404;2023-05-27T12:06:46;95169.06;;;27.54;nan
77702;BME280;66868;42.708;23.404;2023-05-27T12:09:12;95156.78;;;27.83;nan
77702;BME280;66868;42.708;23.404;2023-05-27T12:11:39;95168.56;;;28.20;nan
77702;BME280;66868;42.708;23.404;2023-05-27T12:14:04;95168.97;;;28.36;nan
77702;BME280;66868;42.708;23.404;2023-05-27T12:16:30;95170.22;;;28.67;nan
77702;BME280;66868;42.708;23.404;2023-05-27T12:18:57;95167.44;;;29.01;nan
77702;BME280;66868;42.708;23.404;2023-05-27T12:21:23;95168.63;;;29.18;nan
77702;BME280;66868;42.708;23.404;2023-05-27T12:23:49;95157.59;;;29.16;nan
77702;BME280;66868;42.708;23.404;2023-05-27T12:26:15;95162.41;;;29.19;nan
77702;BME280;66868;42.708;23.404;2023-05-27T12:28:41;95160.56;;;29.46;nan
77702;BME280;66868;42.708;23.404;2023-05-27T12:31:07;95154.84;;;29.75;nan
77702;BME280;66868;42.708;23.404;2023-05-27T12:33:32;95150.97;;;29.98;nan
77702;BME280;66868;42.708;23.404;2023-05-27T12:35:59;95131.31;;;30.26;nan
77702;BME280;66868;42.708;23.404;2023-05-27T12:38:25;95143.28;;;30.47;nan
77702;BME280;66868;42.708;23.404;2023-05-27T12:40:51;95139.25;;;30.51;nan
77702;BME280;66868;42.708;23.404;2023-05-27T12:43:17;95138.34;;;30.64;nan
77702;BME280;66868;42.708;23.404;2023-05-27T12:45:43;95141.03;;;30.76;nan
77702;BME280;66868;42.708;23.404;2023-05-27T12:48:10;95127.16;;;31.06;nan
77702;BME280;66868;42.708;23.404;2023-05-27T12:50:36;95116.91;;;31.23;nan
77702;BME280;66868;42.708;23.404;2023-05-27T12:53:02;95133.22;;;31.80;nan
77702;BME280;66868;42.708;23.404;2023-05-27T12:55:28;95120.44;;;32.01;nan
77702;BME280;66868;42.708;23.404;2023-05-27T12:57:53;95121.81;;;31.56;nan
77702;BME280;66868;42.708;23.404;2023-05-27T13:00:20;95119.63;;;31.35;nan
77702;BME280;66868;42.708;23.404;2023-05-27T13:02:46;95116.72;;;32.09;nan
77702;BME280;66868;42.708;23.404;2023-05-27T13:05:16;95091.47;;;33.03;nan
77702;BME280;66868;42.708;23.404;2023-05-27T13:07:53;95117.69;;;34.29;nan
77702;BME280;66868;42.708;23.404;2023-05-27T13:10:20;95124.72;;;35.84;nan